Time;durP1;ratioP1;P1;durP2;ratioP2;P2;SDS_P1;SDS_P2;PMS_P1;PMS_P2;Temp;Humidity;BMP_temperature;BMP_pressure;BME280_temperature;BME280_humidity;BME280_pressure;Samples;Min_cycle;Max_cycle;Signal;HPM_P1;HPM_P2
2023/08/26 00:00:12;;;;;;;5.38;2.20;;;27.10;53.40;;;;;;7682127;23;20009;-74
2023/08/26 00:03:14;;;;;;;4.63;2.00;;;27.00;53.50;;;;;;7708322;23;20059;-73
2023/08/26 00:06:15;;;;;;;4.95;2.58;;;26.90;53.60;;;;;;7708505;23;20087;-74
2023/08/26 00:09:16;;;;;;;2.40;1.48;;;26.90;53.90;;;;;;7708514;23;20038;-76
2023/08/26 00:12:17;;;;;;;8.90;2.83;;;26.80;54.10;;;;;;7708536;23;20076;-74
2023/08/26 00:15:19;;;;;;;6.07;2.00;;;26.70;54.30;;;;;;7708212;23;20446;-75
2023/08/26 00:18:20;;;;;;;4.88;1.98;;;26.60;54.50;;;;;;7682519;23;20031;-74
2023/08/26 00:21:22;;;;;;;4.70;1.67;;;26.60;54.80;;;;;;7709483;23;20012;-75
2023/08/26 00:24:23;;;;;;;6.07;2.30;;;26.50;55.00;;;;;;7681116;23;20116;-75
2023/08/26 00:27:25;;;;;;;3.40;2.28;;;26.40;55.20;;;;;;7708247;23;20008;-74
2023/08/26 00:30:26;;;;;;;5.30;2.17;;;26.40;55.70;;;;;;7682314;23;20009;-73
2023/08/26 00:33:28;;;;;;;9.23;2.35;;;26.30;56.00;;;;;;7658585;23;20011;-74
2023/08/26 00:36:30;;;;;;;5.03;2.10;;;26.20;56.10;;;;;;7709344;23;20020;-74
2023/08/26 00:39:31;;;;;;;5.53;2.78;;;26.20;56.30;;;;;;7708474;23;20606;-74
2023/08/26 00:42:36;;;;;;;3.22;2.25;;;26.10;56.40;;;;;;7680902;23;20141;-74
2023/08/26 00:45:41;;;;;;;3.85;2.15;;;26.10;56.50;;;;;;7681326;23;20013;-74
2023/08/26 00:48:42;;;;;;;5.00;2.03;;;26.10;56.50;;;;;;7707882;23;20079;-75
2023/08/26 00:51:43;;;;;;;10.80;2.30;;;26.10;56.60;;;;;;7655222;23;20016;-74
2023/08/26 00:54:44;;;;;;;4.13;2.30;;;25.90;56.60;;;;;;7681409;23;20005;-73
2023/08/26 00:57:46;;;;;;;6.75;2.38;;;26.00;56.60;;;;;;7708231;23;20069;-74
2023/08/26 01:00:48;;;;;;;7.40;1.90;;;26.00;56.80;;;;;;7681506;23;20008;-74
2023/08/26 01:03:49;;;;;;;3.92;2.35;;;25.90;57.10;;;;;;7656754;23;20123;-73
2023/08/26 01:06:50;;;;;;;7.18;2.78;;;25.90;57.40;;;;;;7681603;23;20091;-74
2023/08/26 01:09:54;;;;;;;3.72;2.35;;;25.80;57.70;;;;;;7657081;23;20142;-75
2023/08/26 01:13:01;;;;;;;5.75;2.00;;;25.70;57.80;;;;;;7680844;23;20028;-74
2023/08/26 01:16:02;;;;;;;6.70;2.58;;;25.60;58.20;;;;;;7656185;23;20009;-74
2023/08/26 01:19:08;;;;;;;6.68;2.25;;;25.60;58.30;;;;;;7681322;23;20017;-75
2023/08/26 01:22:10;;;;;;;4.43;2.40;;;25.60;58.30;;;;;;7709518;23;20012;-74
2023/08/26 01:25:10;;;;;;;5.53;2.80;;;25.60;58.20;;;;;;7690293;23;20063;-74
2023/08/26 01:28:13;;;;;;;6.47;2.75;;;25.60;58.10;;;;;;7693769;23;20008;-74
2023/08/26 01:31:16;;;;;;;5.55;2.50;;;25.60;58.00;;;;;;7699787;23;20026;-74
2023/08/26 01:34:22;;;;;;;6.10;2.25;;;25.60;58.00;;;;;;7688835;23;20016;-75
2023/08/26 01:37:25;;;;;;;5.22;2.28;;;25.60;58.00;;;;;;7658037;23;20013;-75
2023/08/26 01:40:27;;;;;;;4.63;2.55;;;25.70;57.90;;;;;;7708022;23;20388;-74
2023/08/26 01:43:29;;;;;;;7.53;2.50;;;25.70;57.70;;;;;;7680213;23;20389;-74
2023/08/26 01:46:36;;;;;;;6.22;2.60;;;25.80;57.60;;;;;;7680278;23;20012;-76
2023/08/26 01:49:37;;;;;;;4.93;2.15;;;25.80;57.40;;;;;;7680517;23;20060;-73
2023/08/26 01:52:38;;;;;;;5.22;2.72;;;25.80;57.40;;;;;;7680507;23;20083;-74
2023/08/26 01:55:39;;;;;;;3.30;2.22;;;25.80;57.30;;;;;;7656156;23;20017;-76
2023/08/26 01:58:40;;;;;;;7.45;2.45;;;25.90;57.10;;;;;;7680714;23;20408;-73
2023/08/26 02:01:41;;;;;;;5.60;2.00;;;26.00;56.90;;;;;;7707495;23;20016;-75
2023/08/26 02:04:42;;;;;;;5.50;2.45;;;26.00;56.90;;;;;;7680685;23;20019;-76
2023/08/26 02:07:43;;;;;;;6.28;2.40;;;26.00;57.00;;;;;;7656282;23;20013;-75
2023/08/26 02:10:52;;;;;;;7.13;2.45;;;26.00;56.90;;;;;;7680826;23;20012;-74
2023/08/26 02:13:54;;;;;;;2.75;2.08;;;26.00;56.90;;;;;;7680457;23;20399;-75
2023/08/26 02:16:56;;;;;;;8.20;2.38;;;26.00;56.80;;;;;;7655069;23;20013;-75
2023/08/26 02:19:57;;;;;;;5.40;2.50;;;26.00;56.90;;;;;;7706765;23;20103;-76
2023/08/26 02:22:58;;;;;;;5.95;2.63;;;26.10;57.10;;;;;;7680848;23;20397;-75
2023/08/26 02:25:59;;;;;;;5.80;2.67;;;26.10;56.90;;;;;;7655590;23;20044;-75
2023/08/26 02:29:00;;;;;;;5.10;2.45;;;26.10;56.90;;;;;;7680967;23;20078;-75
2023/08/26 02:32:01;;;;;;;4.32;2.40;;;26.10;56.70;;;;;;7707387;23;20016;-74
2023/08/26 02:35:02;;;;;;;6.93;3.40;;;26.20;56.70;;;;;;7656000;23;20008;-74
2023/08/26 02:38:03;;;;;;;5.53;3.38;;;26.10;56.60;;;;;;7707146;23;20032;-75
2023/08/26 02:41:04;;;;;;;4.32;2.30;;;26.10;56.60;;;;;;7681034;23;20024;-75
2023/08/26 02:44:06;;;;;;;5.53;2.90;;;26.10;56.50;;;;;;7680827;23;20008;-75
2023/08/26 02:47:06;;;;;;;4.47;2.40;;;26.10;56.40;;;;;;7656989;23;20015;-74
2023/08/26 02:50:08;;;;;;;3.88;2.08;;;26.00;56.40;;;;;;7684344;23;20017;-74
2023/08/26 02:53:09;;;;;;;6.72;2.65;;;25.90;56.40;;;;;;7658963;23;20515;-75
2023/08/26 02:56:10;;;;;;;7.70;3.22;;;25.90;56.50;;;;;;7684042;23;20008;-74
2023/08/26 02:59:11;;;;;;;6.60;2.55;;;25.90;56.60;;;;;;7684190;23;20040;-74
2023/08/26 03:02:12;;;;;;;9.50;2.97;;;25.80;56.50;;;;;;7684006;23;20035;-76
2023/08/26 03:05:13;;;;;;;5.03;2.30;;;25.80;56.60;;;;;;7710418;23;20032;-74
2023/08/26 03:08:14;;;;;;;7.82;2.00;;;25.80;56.60;;;;;;7684143;23;20108;-73
2023/08/26 03:11:15;;;;;;;5.07;2.28;;;25.80;56.70;;;;;;7684390;23;20004;-73
2023/08/26 03:14:17;;;;;;;3.10;2.03;;;25.70;56.60;;;;;;7683412;23;20004;-74
2023/08/26 03:17:18;;;;;;;11.13;2.28;;;25.70;56.60;;;;;;7711266;23;20020;-74
2023/08/26 03:20:19;;;;;;;7.60;2.72;;;25.70;56.70;;;;;;7683654;23;20043;-74
2023/08/26 03:23:20;;;;;;;6.57;2.40;;;25.70;56.60;;;;;;7659093;23;20008;-74
2023/08/26 03:26:23;;;;;;;4.22;2.13;;;25.70;56.60;;;;;;7658889;23;20008;-74
2023/08/26 03:29:24;;;;;;;4.20;2.58;;;25.60;56.80;;;;;;7683953;23;20075;-74
2023/08/26 03:32:26;;;;;;;6.10;2.90;;;25.50;57.00;;;;;;7710131;23;20084;-73
2023/08/26 03:35:27;;;;;;;8.23;2.40;;;25.40;57.30;;;;;;7659628;23;20088;-72
2023/08/26 03:38:28;;;;;;;3.78;2.25;;;25.40;57.50;;;;;;7684582;23;20008;-74
2023/08/26 03:41:30;;;;;;;4.00;2.35;;;25.40;57.80;;;;;;7683765;23;20066;-75
2023/08/26 03:44:31;;;;;;;6.97;2.78;;;25.40;57.80;;;;;;7683349;23;20039;-73
2023/08/26 03:47:33;;;;;;;5.57;2.58;;;25.40;57.90;;;;;;7683008;23;20025;-75
2023/08/26 03:50:34;;;;;;;8.02;3.38;;;25.30;57.90;;;;;;7683358;23;20670;-75
2023/08/26 03:53:35;;;;;;;6.60;2.70;;;25.30;58.00;;;;;;7683674;23;20035;-76
2023/08/26 03:56:36;;;;;;;5.90;2.70;;;25.20;58.10;;;;;;7712395;23;20372;-74
2023/08/26 03:59:37;;;;;;;6.20;3.10;;;25.20;58.30;;;;;;7683033;23;20095;-75
2023/08/26 04:02:38;;;;;;;10.77;3.20;;;25.10;58.50;;;;;;7709312;23;20315;-74
2023/08/26 04:05:39;;;;;;;6.32;3.08;;;25.00;58.70;;;;;;7682273;23;20066;-74
2023/08/26 04:08:39;;;;;;;8.45;3.20;;;25.00;58.80;;;;;;7682153;23;20015;-73
2023/08/26 04:11:42;;;;;;;11.80;3.25;;;24.90;58.80;;;;;;7681296;23;20047;-74
2023/08/26 04:14:43;;;;;;;9.57;2.75;;;24.90;58.80;;;;;;7681662;23;20019;-74
2023/08/26 04:17:44;;;;;;;17.92;3.17;;;24.90;58.90;;;;;;7707933;23;20315;-75
2023/08/26 04:20:45;;;;;;;10.50;3.30;;;24.90;58.90;;;;;;7681412;23;20467;-74
2023/08/26 04:23:46;;;;;;;12.38;3.17;;;24.90;59.00;;;;;;7681409;23;20012;-73
2023/08/26 04:26:47;;;;;;;5.97;2.60;;;24.90;59.00;;;;;;7682435;23;20334;-74
2023/08/26 04:29:50;;;;;;;11.55;3.38;;;24.80;59.10;;;;;;7661044;23;20008;-74
2023/08/26 04:32:51;;;;;;;7.45;3.72;;;24.80;59.40;;;;;;7667350;23;20056;-75
2023/08/26 04:35:52;;;;;;;10.25;3.92;;;24.80;59.60;;;;;;7697156;23;20090;-73
2023/08/26 04:38:53;;;;;;;9.00;3.78;;;24.70;59.70;;;;;;7722579;23;20004;-75
2023/08/26 04:41:54;;;;;;;10.70;4.57;;;24.70;59.90;;;;;;7684529;23;20387;-73
2023/08/26 04:44:55;;;;;;;9.40;4.55;;;24.60;60.40;;;;;;7681560;23;20418;-74
2023/08/26 04:47:56;;;;;;;12.10;4.07;;;24.50;60.60;;;;;;7681091;23;20031;-74
2023/08/26 04:50:57;;;;;;;8.75;3.97;;;24.50;61.00;;;;;;7656151;23;20000;-76
2023/08/26 04:53:58;;;;;;;13.15;4.68;;;24.50;61.00;;;;;;7681767;23;20005;-74
2023/08/26 04:56:59;;;;;;;9.05;4.07;;;24.50;61.00;;;;;;7656904;23;20024;-77
2023/08/26 05:00:00;;;;;;;15.05;4.13;;;24.50;61.10;;;;;;7681651;23;20542;-76
2023/08/26 05:03:01;;;;;;;10.18;4.18;;;24.50;61.40;;;;;;7681142;23;20397;-77
2023/08/26 05:06:03;;;;;;;9.77;4.03;;;24.40;61.50;;;;;;7656321;23;20008;-75
2023/08/26 05:09:04;;;;;;;10.48;4.00;;;24.40;61.70;;;;;;7681571;23;20012;-75
2023/08/26 05:12:05;;;;;;;8.57;3.40;;;24.50;61.70;;;;;;7680875;23;20005;-74
2023/08/26 05:15:07;;;;;;;10.65;3.97;;;24.50;61.60;;;;;;7681066;23;20013;-75
2023/08/26 05:18:09;;;;;;;4.35;3.22;;;24.50;61.50;;;;;;7680580;23;20515;-75
2023/08/26 05:21:10;;;;;;;7.20;3.55;;;24.50;61.40;;;;;;7681187;23;20382;-75
2023/08/26 05:24:11;;;;;;;8.77;3.67;;;24.50;61.40;;;;;;7707779;23;20019;-74
2023/08/26 05:27:13;;;;;;;12.07;5.00;;;24.50;61.40;;;;;;7680831;23;20059;-74
2023/08/26 05:30:15;;;;;;;9.00;4.13;;;24.60;61.30;;;;;;7681038;23;20005;-75
2023/08/26 05:33:23;;;;;;;6.65;3.88;;;24.60;61.20;;;;;;7680946;23;20100;-74
2023/08/26 05:36:24;;;;;;;6.18;3.42;;;24.60;61.20;;;;;;7656452;23;20369;-75
2023/08/26 05:39:25;;;;;;;6.03;3.40;;;24.60;61.20;;;;;;7681655;23;20047;-75
2023/08/26 05:42:26;;;;;;;7.45;3.70;;;24.60;61.10;;;;;;7680945;23;20009;-74
2023/08/26 05:45:27;;;;;;;6.03;2.90;;;24.70;61.00;;;;;;7681147;23;20499;-74
2023/08/26 05:48:28;;;;;;;9.60;3.38;;;24.80;60.70;;;;;;7656771;23;20017;-75
2023/08/26 05:51:30;;;;;;;5.50;2.85;;;24.90;60.40;;;;;;7680807;23;20016;-74
2023/08/26 05:54:32;;;;;;;6.15;2.85;;;25.00;60.00;;;;;;7681140;23;20004;-75
2023/08/26 05:57:33;;;;;;;6.57;3.50;;;25.10;59.70;;;;;;7681146;23;20016;-75
2023/08/26 06:00:34;;;;;;;7.63;3.35;;;25.20;59.60;;;;;;7681233;23;20445;-75
2023/08/26 06:03:35;;;;;;;4.57;3.00;;;25.20;59.30;;;;;;7680906;23;20008;-76
2023/08/26 06:06:36;;;;;;;5.07;2.72;;;25.40;59.20;;;;;;7680154;23;20008;-76
2023/08/26 06:09:37;;;;;;;7.15;2.90;;;25.50;58.90;;;;;;7680565;23;20039;-75
2023/08/26 06:12:38;;;;;;;8.15;3.08;;;25.60;58.60;;;;;;7681241;23;20079;-74
2023/08/26 06:15:40;;;;;;;9.02;3.35;;;25.60;58.40;;;;;;7656946;23;20334;-75
2023/08/26 06:18:41;;;;;;;4.75;2.70;;;25.70;58.20;;;;;;7681349;23;20291;-76
2023/08/26 06:21:44;;;;;;;7.07;3.45;;;25.70;58.10;;;;;;7680693;23;20016;-77
2023/08/26 06:24:46;;;;;;;6.35;3.33;;;25.80;57.90;;;;;;7708199;23;20020;-76
2023/08/26 06:27:47;;;;;;;9.20;3.55;;;25.90;57.80;;;;;;7681138;23;20009;-75
2023/08/26 06:30:48;;;;;;;7.63;3.70;;;25.90;57.50;;;;;;7680778;23;20087;-74
2023/08/26 06:33:49;;;;;;;15.23;4.10;;;26.00;57.30;;;;;;7655440;23;20019;-75
2023/08/26 06:36:51;;;;;;;6.25;3.33;;;26.00;57.30;;;;;;7681377;23;20021;-76
2023/08/26 06:39:52;;;;;;;6.35;3.42;;;26.10;57.10;;;;;;7680023;23;20008;-76
2023/08/26 06:42:53;;;;;;;11.23;3.85;;;26.30;56.80;;;;;;7679263;23;20039;-76
2023/08/26 06:45:58;;;;;;;6.28;3.42;;;26.40;57.10;;;;;;7680050;23;20438;-75
2023/08/26 06:49:02;;;;;;;6.10;3.40;;;26.40;56.30;;;;;;7680442;23;20013;-73
2023/08/26 06:52:03;;;;;;;15.50;3.75;;;26.60;56.20;;;;;;7655188;23;20314;-75
2023/08/26 06:55:05;;;;;;;16.25;3.95;;;26.70;55.70;;;;;;7706880;23;20008;-73
2023/08/26 06:58:05;;;;;;;8.63;3.67;;;26.80;55.60;;;;;;7707396;23;20005;-73
2023/08/26 07:01:06;;;;;;;7.50;3.40;;;26.90;55.50;;;;;;7706590;23;20032;-75
2023/08/26 07:04:08;;;;;;;12.95;2.92;;;27.10;55.20;;;;;;7680796;23;20095;-74
2023/08/26 07:07:11;;;;;;;5.30;3.58;;;27.20;54.70;;;;;;7681677;23;20740;-74
2023/08/26 07:10:13;;;;;;;5.45;2.85;;;27.20;54.60;;;;;;7680921;23;20414;-74
2023/08/26 07:13:14;;;;;;;7.55;3.42;;;27.20;54.60;;;;;;7706709;23;20008;-76
2023/08/26 07:16:16;;;;;;;10.05;3.47;;;27.20;54.40;;;;;;7679939;23;20012;-75
2023/08/26 07:19:17;;;;;;;7.07;3.05;;;27.20;54.20;;;;;;7680155;23;20066;-75
2023/08/26 07:22:18;;;;;;;6.78;3.05;;;27.10;54.20;;;;;;7654281;23;20012;-74
2023/08/26 07:25:21;;;;;;;12.18;3.80;;;27.10;54.20;;;;;;7706278;23;20098;-74
2023/08/26 07:28:22;;;;;;;6.90;2.97;;;27.10;54.20;;;;;;7680373;23;20022;-75
2023/08/26 07:31:25;;;;;;;5.85;2.95;;;27.00;54.30;;;;;;7707195;23;20376;-74
2023/08/26 07:34:26;;;;;;;3.60;2.42;;;27.00;54.20;;;;;;7708292;23;20065;-73
2023/08/26 07:37:29;;;;;;;8.27;3.00;;;27.10;54.20;;;;;;7684341;23;20058;-74
2023/08/26 07:40:30;;;;;;;10.52;2.88;;;27.20;54.10;;;;;;7659014;23;20009;-76
2023/08/26 07:43:33;;;;;;;5.10;2.90;;;27.20;53.80;;;;;;7682907;23;20457;-74
2023/08/26 07:46:35;;;;;;;8.15;2.78;;;27.10;53.50;;;;;;7709009;23;20074;-73
2023/08/26 07:49:36;;;;;;;6.72;2.72;;;27.10;53.50;;;;;;7658211;23;20056;-74
2023/08/26 07:52:38;;;;;;;5.38;2.80;;;27.00;53.60;;;;;;7710038;23;20194;-74
2023/08/26 07:55:39;;;;;;;7.10;2.30;;;27.00;53.20;;;;;;7681981;23;20004;-75
2023/08/26 07:58:40;;;;;;;8.70;2.45;;;26.80;53.10;;;;;;7658686;23;20036;-75
2023/08/26 08:01:41;;;;;;;4.57;2.00;;;26.90;53.00;;;;;;7710221;23;20005;-75
2023/08/26 08:04:42;;;;;;;4.93;2.38;;;26.80;52.50;;;;;;7709951;23;20076;-74
2023/08/26 08:07:43;;;;;;;6.10;2.20;;;26.70;52.50;;;;;;7683245;23;20088;-76
2023/08/26 08:10:44;;;;;;;8.20;2.38;;;26.60;52.70;;;;;;7709838;23;20005;-74
2023/08/26 08:13:45;;;;;;;9.45;2.30;;;26.50;52.70;;;;;;7708827;23;20008;-74
2023/08/26 08:16:47;;;;;;;4.32;2.28;;;26.40;52.90;;;;;;7709477;23;20011;-75
2023/08/26 08:19:49;;;;;;;7.97;2.25;;;26.30;53.00;;;;;;7682719;23;20279;-75
2023/08/26 08:22:49;;;;;;;6.20;1.98;;;26.20;53.10;;;;;;7683140;23;20079;-75
2023/08/26 08:25:51;;;;;;;4.40;2.08;;;26.20;53.30;;;;;;7711302;23;20009;-74
2023/08/26 08:28:52;;;;;;;4.22;2.10;;;26.20;53.40;;;;;;7709701;23;20040;-74
2023/08/26 08:31:53;;;;;;;2.75;1.63;;;26.20;53.50;;;;;;7709545;23;20011;-74
2023/08/26 08:34:54;;;;;;;3.80;1.65;;;26.20;53.60;;;;;;7683246;23;20037;-74
2023/08/26 08:37:56;;;;;;;5.63;2.30;;;26.20;53.80;;;;;;7708956;23;20004;-75
2023/08/26 08:40:59;;;;;;;3.55;2.10;;;26.20;54.10;;;;;;7708703;23;20012;-74
2023/08/26 08:44:05;;;;;;;5.18;2.33;;;26.00;54.60;;;;;;7682289;23;20118;-73
2023/08/26 08:47:07;;;;;;;12.55;3.03;;;25.90;55.10;;;;;;7709223;23;20004;-75
2023/08/26 08:50:09;;;;;;;4.43;2.33;;;25.90;55.40;;;;;;7709225;23;20330;-75
2023/08/26 08:53:13;;;;;;;11.07;2.70;;;25.90;55.60;;;;;;7708920;23;20473;-75
2023/08/26 08:56:19;;;;;;;9.57;2.20;;;25.90;55.90;;;;;;7681807;23;20082;-75
2023/08/26 08:59:21;;;;;;;9.80;2.65;;;25.90;56.00;;;;;;7708568;23;20465;-77
2023/08/26 09:02:22;;;;;;;7.30;2.15;;;25.90;56.20;;;;;;7709187;23;20005;-76
2023/08/26 09:05:24;;;;;;;6.35;2.25;;;25.80;56.60;;;;;;7708707;23;20012;-74
2023/08/26 09:08:28;;;;;;;7.95;2.60;;;25.70;57.20;;;;;;7708816;23;20303;-75
2023/08/26 09:11:29;;;;;;;5.30;2.25;;;25.70;57.40;;;;;;7709238;23;20020;-75
2023/08/26 09:14:30;;;;;;;11.40;2.88;;;25.60;57.50;;;;;;7708473;23;20418;-74
2023/08/26 09:17:32;;;;;;;7.32;3.28;;;25.50;57.80;;;;;;7707889;23;20429;-75
2023/08/26 09:20:39;;;;;;;12.40;3.58;;;25.50;58.20;;;;;;7709048;23;20012;-74
2023/08/26 09:23:44;;;;;;;6.00;3.00;;;25.50;58.30;;;;;;7707805;23;20107;-76
2023/08/26 09:27:02;;;;;;;6.38;3.08;;;25.70;58.40;;;;;;7709029;23;20020;-74
2023/08/26 09:30:06;;;;;;;10.35;3.05;;;25.70;58.50;;;;;;7682499;23;20001;-77
2023/08/26 09:33:14;;;;;;;10.70;3.25;;;25.80;58.40;;;;;;7710379;23;20430;-79
2023/08/26 09:36:14;;;;;;;5.88;2.80;;;25.90;58.40;;;;;;7710778;23;20169;-78
2023/08/26 09:39:16;;;;;;;10.02;2.83;;;25.90;58.10;;;;;;7682989;23;20115;-77
2023/08/26 09:42:17;;;;;;;12.70;3.03;;;25.90;57.90;;;;;;7658128;23;20017;-77
2023/08/26 09:45:19;;;;;;;11.00;3.17;;;25.90;57.90;;;;;;7657040;23;20125;-76
2023/08/26 09:48:22;;;;;;;8.65;2.97;;;25.90;58.20;;;;;;7709670;23;20091;-75
2023/08/26 09:51:29;;;;;;;19.98;3.80;;;25.90;58.30;;;;;;7711246;23;20024;-77
2023/08/26 09:54:31;;;;;;;13.35;3.70;;;25.90;58.70;;;;;;7682778;23;20012;-75
2023/08/26 09:57:32;;;;;;;10.45;3.28;;;25.80;58.70;;;;;;7680679;23;20119;-76
2023/08/26 10:00:33;;;;;;;11.98;3.60;;;25.70;58.90;;;;;;7681012;23;20019;-75
2023/08/26 10:03:37;;;;;;;10.05;3.60;;;25.50;59.30;;;;;;7681986;23;20050;-75
2023/08/26 10:06:43;;;;;;;7.05;3.17;;;25.40;59.90;;;;;;7681158;23;20066;-77
2023/08/26 10:09:56;;;;;;;9.48;3.92;;;25.30;60.60;;;;;;7656896;23;20090;-75
2023/08/26 10:13:02;;;;;;;11.05;3.83;;;25.30;61.10;;;;;;7656862;23;20083;-75
2023/08/26 10:16:09;;;;;;;14.98;3.97;;;25.20;61.40;;;;;;7684501;23;20103;-75
2023/08/26 10:19:12;;;;;;;13.38;3.78;;;25.20;61.60;;;;;;7685256;23;20048;-76
2023/08/26 10:22:14;;;;;;;10.02;4.18;;;25.10;62.10;;;;;;7681796;23;20137;-76
2023/08/26 10:25:15;;;;;;;9.82;4.05;;;25.00;62.60;;;;;;7680844;23;20055;-77
2023/08/26 10:28:19;;;;;;;15.45;4.47;;;25.00;63.20;;;;;;7708544;23;20028;-76
2023/08/26 10:31:19;;;;;;;13.93;5.25;;;25.00;63.70;;;;;;7681074;23;20135;-74
2023/08/26 10:34:29;;;;;;;24.50;5.90;;;24.90;64.00;;;;;;7655422;23;20004;-77
2023/08/26 10:37:34;;;;;;;17.38;5.97;;;25.00;64.20;;;;;;7708216;23;20333;-79
2023/08/26 10:40:34;;;;;;;16.27;3.85;;;25.00;64.50;;;;;;7682097;23;20032;-78
2023/08/26 10:43:36;;;;;;;15.00;4.45;;;24.90;64.80;;;;;;7658331;23;20099;-77
2023/08/26 10:46:52;;;;;;;8.30;3.78;;;24.90;64.90;;;;;;7710988;23;20290;-76
2023/08/26 10:50:18;;;;;;;9.60;4.18;;;25.00;65.00;;;;;;7687273;23;20290;-77
2023/08/26 10:53:23;;;;;;;13.93;4.28;;;24.90;64.80;;;;;;7685123;23;20009;-76
2023/08/26 10:56:27;;;;;;;8.27;3.70;;;25.00;64.50;;;;;;7681861;23;20036;-76
2023/08/26 10:59:35;;;;;;;9.27;3.70;;;25.00;64.20;;;;;;7708119;23;20009;-74
2023/08/26 11:02:36;;;;;;;7.85;3.40;;;25.00;63.90;;;;;;7680124;23;20035;-78
2023/08/26 11:05:42;;;;;;;10.27;3.78;;;25.00;64.30;;;;;;7707230;23;20015;-76
2023/08/26 11:08:52;;;;;;;14.93;3.92;;;25.00;63.30;;;;;;7682476;23;20098;-74
2023/08/26 11:11:53;;;;;;;10.75;3.75;;;25.10;63.40;;;;;;7710950;23;20012;-75
2023/08/26 11:15:05;;;;;;;9.88;3.45;;;25.10;63.10;;;;;;7683809;23;20043;-77
2023/08/26 11:18:07;;;;;;;8.85;4.00;;;25.20;63.20;;;;;;7684497;23;20055;-77
2023/08/26 11:21:08;;;;;;;6.30;3.72;;;25.20;63.00;;;;;;7710768;23;20019;-76
2023/08/26 11:24:09;;;;;;;10.95;3.60;;;25.30;62.90;;;;;;7710875;23;20082;-76
2023/08/26 11:27:10;;;;;;;11.82;3.65;;;25.40;62.80;;;;;;7684317;23;20074;-75
2023/08/26 11:30:12;;;;;;;14.25;3.80;;;25.40;62.80;;;;;;7683108;23;20008;-76
2023/08/26 11:33:18;;;;;;;7.78;4.65;;;25.60;62.70;;;;;;7709384;23;20075;-76
2023/08/26 11:36:20;;;;;;;12.52;4.10;;;25.70;62.30;;;;;;7683192;23;20012;-76
2023/08/26 11:39:22;;;;;;;12.20;5.13;;;25.80;61.80;;;;;;7711118;23;20105;-74
2023/08/26 11:42:23;;;;;;;8.40;5.25;;;25.80;61.60;;;;;;7710346;23;20008;-76
2023/08/26 11:45:25;;;;;;;14.90;6.55;;;25.80;61.80;;;;;;7684099;23;20080;-77
2023/08/26 11:48:27;;;;;;;10.73;4.00;;;25.70;61.90;;;;;;7683429;23;20012;-75
2023/08/26 11:51:29;;;;;;;8.82;4.03;;;25.60;62.10;;;;;;7711071;23;20021;-76
2023/08/26 11:54:30;;;;;;;14.20;5.53;;;25.60;62.40;;;;;;7683365;23;20016;-76
2023/08/26 11:57:35;;;;;;;12.10;4.10;;;25.50;62.30;;;;;;7710648;23;20036;-77
2023/08/26 12:00:37;;;;;;;20.85;5.40;;;25.50;62.30;;;;;;7659868;23;20008;-76
2023/08/26 12:03:42;;;;;;;9.40;4.20;;;25.50;62.30;;;;;;7658893;23;20442;-76
2023/08/26 12:06:43;;;;;;;14.35;4.35;;;25.40;62.70;;;;;;7709329;23;20036;-76
2023/08/26 12:09:44;;;;;;;10.70;4.03;;;25.40;63.00;;;;;;7710289;23;20000;-77
2023/08/26 12:12:46;;;;;;;6.75;3.40;;;25.50;63.10;;;;;;7710618;23;20580;-76
2023/08/26 12:15:49;;;;;;;8.27;3.42;;;25.80;62.80;;;;;;7710370;23;20083;-75
2023/08/26 12:18:53;;;;;;;8.55;3.08;;;26.00;61.80;;;;;;7683602;23;20059;-75
2023/08/26 12:21:57;;;;;;;7.10;2.80;;;26.20;61.20;;;;;;7710518;23;20009;-76
2023/08/26 12:24:59;;;;;;;13.75;3.88;;;26.30;60.60;;;;;;7683963;23;20026;-77
2023/08/26 12:28:12;;;;;;;4.97;2.47;;;26.40;59.90;;;;;;7659690;23;20497;-76
2023/08/26 12:31:13;;;;;;;10.38;4.07;;;26.50;59.00;;;;;;7683082;23;20017;-76
2023/08/26 12:34:14;;;;;;;7.55;2.83;;;26.60;58.20;;;;;;7683404;23;20058;-75
2023/08/26 12:37:15;;;;;;;6.30;3.50;;;26.80;58.10;;;;;;7710043;23;20027;-76
2023/08/26 12:40:16;;;;;;;3.13;2.22;;;27.50;57.60;;;;;;7659022;23;20373;-75
2023/08/26 12:43:20;;;;;;;7.75;2.92;;;28.80;55.60;;;;;;7709495;23;20015;-77
2023/08/26 12:46:22;;;;;;;5.65;2.33;;;30.00;52.60;;;;;;7710181;23;20417;-77
2023/08/26 12:49:24;;;;;;;3.40;2.17;;;30.20;50.90;;;;;;7683147;23;20119;-76
2023/08/26 12:52:26;;;;;;;5.85;2.58;;;30.10;50.70;;;;;;7682605;23;20092;-76
2023/08/26 12:55:27;;;;;;;4.53;2.35;;;30.30;50.30;;;;;;7710108;23;20050;-78
2023/08/26 12:58:28;;;;;;;9.52;4.28;;;30.40;49.90;;;;;;7683536;23;20019;-76
2023/08/26 13:01:29;;;;;;;5.15;2.58;;;31.00;49.60;;;;;;7658939;23;20389;-77
2023/08/26 13:04:32;;;;;;;8.48;2.15;;;32.10;48.20;;;;;;7683686;23;20076;-75
2023/08/26 13:07:34;;;;;;;7.95;3.20;;;32.80;46.90;;;;;;7683909;23;20009;-76
2023/08/26 13:10:35;;;;;;;8.95;3.00;;;33.30;45.20;;;;;;7684193;23;20104;-77
2023/08/26 13:13:36;;;;;;;4.80;2.28;;;33.20;45.00;;;;;;7684193;23;20056;-78
2023/08/26 13:16:38;;;;;;;8.27;2.90;;;33.00;45.20;;;;;;7710330;23;20009;-76
2023/08/26 13:19:43;;;;;;;6.07;2.47;;;32.70;45.50;;;;;;7682788;23;20053;-77
2023/08/26 13:22:44;;;;;;;6.60;2.70;;;33.00;44.90;;;;;;7692419;23;20020;-76
2023/08/26 13:25:45;;;;;;;10.23;3.10;;;33.10;44.10;;;;;;7688427;23;20073;-77
2023/08/26 13:28:46;;;;;;;6.47;2.28;;;33.70;43.70;;;;;;7710560;23;20341;-76
2023/08/26 13:31:47;;;;;;;5.28;2.15;;;35.00;41.90;;;;;;7684039;23;20019;-76
2023/08/26 13:34:49;;;;;;;7.30;1.80;;;35.30;40.60;;;;;;7711053;23;20369;-79
2023/08/26 13:37:50;;;;;;;6.30;2.10;;;34.80;40.50;;;;;;7683013;23;20027;-77
2023/08/26 13:40:51;;;;;;;13.63;3.10;;;34.10;41.30;;;;;;7684232;23;20099;-76
2023/08/26 13:43:52;;;;;;;6.65;2.17;;;33.90;41.60;;;;;;7710252;23;20009;-77
2023/08/26 13:46:53;;;;;;;4.90;2.10;;;33.80;41.50;;;;;;7709934;23;20430;-78
2023/08/26 13:49:53;;;;;;;4.68;1.60;;;34.40;40.70;;;;;;7709859;23;20004;-79
2023/08/26 13:52:55;;;;;;;5.57;1.77;;;35.50;38.10;;;;;;7682140;23;20650;-77
2023/08/26 13:55:57;;;;;;;5.82;2.08;;;35.40;37.40;;;;;;7684183;23;20009;-77
2023/08/26 13:59:00;;;;;;;9.07;2.90;;;35.30;37.50;;;;;;7682132;23;20382;-77
2023/08/26 14:02:01;;;;;;;3.40;1.67;;;36.20;36.50;;;;;;7658651;23;20016;-77
2023/08/26 14:05:03;;;;;;;5.57;2.00;;;37.10;34.90;;;;;;7682663;23;20008;-76
2023/08/26 14:08:04;;;;;;;4.45;1.67;;;37.90;33.90;;;;;;7683593;23;20287;-74
2023/08/26 14:11:04;;;;;;;3.40;1.50;;;38.50;32.90;;;;;;7708959;23;20038;-76
2023/08/26 14:14:06;;;;;;;3.30;1.60;;;39.00;32.10;;;;;;7682534;23;20019;-75
2023/08/26 14:17:08;;;;;;;8.77;2.03;;;39.10;31.40;;;;;;7657467;23;20108;-74
2023/08/26 14:20:09;;;;;;;3.40;1.90;;;38.30;31.70;;;;;;7657305;23;20087;-75
2023/08/26 14:23:11;;;;;;;3.28;1.90;;;37.10;33.00;;;;;;7709003;23;20035;-76
2023/08/26 14:26:12;;;;;;;4.80;2.03;;;35.90;34.60;;;;;;7707855;23;20144;-76
2023/08/26 14:29:13;;;;;;;4.90;1.63;;;34.90;35.90;;;;;;7709148;23;20009;-76
2023/08/26 14:32:14;;;;;;;5.68;1.90;;;34.20;37.10;;;;;;7708965;23;20009;-75
2023/08/26 14:35:16;;;;;;;4.30;1.60;;;33.50;38.10;;;;;;7709263;23;20114;-74
2023/08/26 14:38:17;;;;;;;8.13;2.50;;;33.00;39.00;;;;;;7682012;23;20008;-75
2023/08/26 14:41:18;;;;;;;4.55;2.20;;;32.50;39.80;;;;;;7707704;23;20044;-75
2023/08/26 14:44:20;;;;;;;3.60;1.90;;;32.00;41.20;;;;;;7680545;23;20040;-76
2023/08/26 14:47:21;;;;;;;2.97;1.40;;;31.60;41.30;;;;;;7680622;23;20020;-75
2023/08/26 14:50:22;;;;;;;4.60;2.42;;;31.30;42.00;;;;;;7681465;23;20005;-75
2023/08/26 14:53:26;;;;;;;6.22;1.60;;;31.00;42.60;;;;;;7709403;23;20099;-74
2023/08/26 14:56:27;;;;;;;6.28;2.03;;;30.70;43.30;;;;;;7683242;23;20013;-74
2023/08/26 14:59:29;;;;;;;4.05;1.98;;;30.50;43.70;;;;;;7708813;23;20011;-76
2023/08/26 15:02:30;;;;;;;3.25;1.60;;;30.40;43.90;;;;;;7710315;23;20071;-74
2023/08/26 15:05:31;;;;;;;4.50;2.28;;;30.30;43.90;;;;;;7683765;23;20013;-76
2023/08/26 15:08:32;;;;;;;6.72;1.90;;;30.30;44.10;;;;;;7710579;23;20005;-76
2023/08/26 15:11:33;;;;;;;3.10;1.83;;;30.30;44.30;;;;;;7681833;23;20063;-75
2023/08/26 15:14:35;;;;;;;3.55;1.58;;;30.30;44.60;;;;;;7682344;23;20334;-76
2023/08/26 15:17:36;;;;;;;4.88;1.92;;;30.30;44.80;;;;;;7708840;23;20009;-75
2023/08/26 15:20:43;;;;;;;4.93;1.73;;;30.30;44.80;;;;;;7681622;23;20285;-75
2023/08/26 15:23:45;;;;;;;3.72;1.80;;;30.30;44.70;;;;;;7682656;23;20092;-75
2023/08/26 15:26:47;;;;;;;5.03;1.98;;;30.30;44.90;;;;;;7708488;23;20102;-74
2023/08/26 15:29:48;;;;;;;6.63;1.95;;;30.30;45.60;;;;;;7681469;23;20031;-75
2023/08/26 15:32:49;;;;;;;5.13;1.92;;;30.50;44.80;;;;;;7707962;23;20340;-75
2023/08/26 15:35:50;;;;;;;4.32;1.92;;;30.50;44.60;;;;;;7680589;23;20009;-75
2023/08/26 15:38:51;;;;;;;7.55;2.47;;;30.60;44.70;;;;;;7679518;23;20092;-74
2023/08/26 15:41:52;;;;;;;4.10;2.60;;;30.50;44.70;;;;;;7679929;23;20015;-76
2023/08/26 15:44:53;;;;;;;5.85;2.08;;;30.50;44.80;;;;;;7654698;23;20356;-74